Time;durP1;ratioP1;P1;durP2;ratioP2;P2;SDS_P1;SDS_P2;PMS_P1;PMS_P2;Temp;Humidity;BMP_temperature;BMP_pressure;BME280_temperature;BME280_humidity;BME280_pressure;Samples;Min_cycle;Max_cycle;Signal;HPM_P1;HPM_P2
2022/10/29 00:00:32;;;;;;;17.20;12.93;;;16.80;99.90;;;;;;5047697;28;20845;-67
2022/10/29 00:03:01;;;;;;;20.50;13.97;;;16.80;99.90;;;;;;5047642;28;20462;-65
2022/10/29 00:05:28;;;;;;;19.40;14.40;;;16.70;99.90;;;;;;5044110;28;20600;-66
2022/10/29 00:07:54;;;;;;;23.67;14.40;;;16.80;99.90;;;;;;5046418;28;20471;-68
2022/10/29 00:10:21;;;;;;;22.03;15.20;;;16.80;99.90;;;;;;5044915;28;20517;-70
2022/10/29 00:12:48;;;;;;;16.73;14.30;;;16.90;99.90;;;;;;5046626;28;20467;-66
2022/10/29 00:15:15;;;;;;;23.03;12.70;;;16.80;99.90;;;;;;5045849;28;20959;-69
2022/10/29 00:17:42;;;;;;;14.70;12.90;;;16.80;99.90;;;;;;5040292;28;20468;-67
2022/10/29 00:20:10;;;;;;;23.00;13.97;;;16.70;99.90;;;;;;5046314;28;22030;-68
2022/10/29 00:22:38;;;;;;;24.67;14.23;;;16.60;99.90;;;;;;5043426;28;20467;-68
2022/10/29 00:25:06;;;;;;;18.80;14.30;;;16.60;99.90;;;;;;5046442;28;20485;-70
2022/10/29 00:27:33;;;;;;;14.77;13.20;;;16.50;99.90;;;;;;5045213;28;20491;-67
2022/10/29 00:30:00;;;;;;;25.90;15.00;;;16.50;99.90;;;;;;5045781;28;20499;-66
2022/10/29 00:32:27;;;;;;;13.60;12.27;;;16.50;99.90;;;;;;5045158;28;20866;-67
2022/10/29 00:34:54;;;;;;;14.93;13.63;;;16.50;99.90;;;;;;5042875;28;20574;-66
2022/10/29 00:37:23;;;;;;;19.50;14.17;;;16.50;99.90;;;;;;5046870;28;20593;-66
2022/10/29 00:39:49;;;;;;;16.27;14.00;;;16.40;99.90;;;;;;5041283;28;20534;-69
2022/10/29 00:42:17;;;;;;;16.73;13.70;;;16.30;99.90;;;;;;5046203;28;20468;-69
2022/10/29 00:44:44;;;;;;;19.63;13.00;;;16.30;99.90;;;;;;5043795;28;21324;-67
2022/10/29 00:47:18;;;;;;;14.90;13.43;;;16.30;99.90;;;;;;5046692;28;20468;-67
2022/10/29 00:49:47;;;;;;;15.87;14.17;;;16.30;99.90;;;;;;5042703;28;20462;-70
2022/10/29 00:52:15;;;;;;;16.77;12.97;;;16.20;99.90;;;;;;5045215;28;20514;-69
2022/10/29 00:54:46;;;;;;;16.37;13.87;;;16.30;99.90;;;;;;5045995;28;20471;-68
2022/10/29 00:57:16;;;;;;;20.10;15.20;;;16.30;99.90;;;;;;5040932;28;20456;-66
2022/10/29 00:59:45;;;;;;;17.60;14.53;;;16.30;99.90;;;;;;5047226;28;20464;-66
2022/10/29 01:02:12;;;;;;;15.53;13.97;;;16.30;99.90;;;;;;5046238;28;20456;-67
2022/10/29 01:04:41;;;;;;;15.50;13.80;;;16.30;99.90;;;;;;5043591;28;20511;-65
2022/10/29 01:07:08;;;;;;;22.33;14.00;;;16.20;99.90;;;;;;5043933;28;20468;-68
2022/10/29 01:09:35;;;;;;;16.53;13.87;;;16.20;99.90;;;;;;5046026;28;20460;-66
2022/10/29 01:12:28;;;;;;;17.90;13.60;;;16.10;99.90;;;;;;5044571;28;20525;-67
2022/10/29 01:15:07;;;;;;;16.17;13.70;;;16.10;99.90;;;;;;5045060;28;20967;-66
2022/10/29 01:17:45;;;;;;;19.10;13.40;;;16.10;99.90;;;;;;5041606;28;20490;-67
2022/10/29 01:20:47;;;;;;;16.53;14.30;;;16.00;99.90;;;;;;5045749;28;20954;-69
2022/10/29 01:23:42;;;;;;;15.93;14.10;;;15.90;99.90;;;;;;5046811;28;20454;-67
2022/10/29 01:26:28;;;;;;;23.73;15.70;;;15.90;99.90;;;;;;5046839;28;20549;-67
2022/10/29 01:29:10;;;;;;;20.30;15.20;;;15.90;99.90;;;;;;5043933;28;20487;-67
2022/10/29 01:31:44;;;;;;;24.90;14.90;;;15.90;99.90;;;;;;5043254;28;20491;-67
2022/10/29 01:34:16;;;;;;;32.60;15.67;;;15.80;99.90;;;;;;5045170;28;20475;-67
2022/10/29 01:36:48;;;;;;;25.23;16.63;;;15.80;99.90;;;;;;5044851;28;20464;-66
2022/10/29 01:39:27;;;;;;;37.10;17.17;;;15.90;99.90;;;;;;5041552;28;20462;-69
2022/10/29 01:42:02;;;;;;;54.33;17.00;;;15.90;99.90;;;;;;5042949;28;20471;-68
2022/10/29 01:44:36;;;;;;;21.93;13.80;;;15.90;99.90;;;;;;5042953;28;20490;-68
2022/10/29 01:47:05;;;;;;;28.60;14.87;;;15.90;99.90;;;;;;5044107;28;20487;-68
2022/10/29 01:49:37;;;;;;;26.70;15.60;;;15.90;99.90;;;;;;5042382;28;20494;-69
2022/10/29 01:52:07;;;;;;;32.20;14.90;;;15.90;99.90;;;;;;5045335;28;20460;-69
2022/10/29 01:54:34;;;;;;;22.60;14.57;;;15.90;99.90;;;;;;5045351;28;20464;-66
2022/10/29 01:57:01;;;;;;;24.90;14.50;;;15.90;99.90;;;;;;5042950;28;20459;-67
2022/10/29 01:59:31;;;;;;;26.17;15.70;;;15.90;99.90;;;;;;5046254;28;20472;-68
2022/10/29 02:02:15;;;;;;;25.87;15.87;;;15.90;99.90;;;;;;5047009;28;20571;-66
2022/10/29 02:05:00;;;;;;;23.40;14.23;;;15.80;99.90;;;;;;5045173;28;20471;-67
2022/10/29 02:07:37;;;;;;;22.47;14.50;;;15.70;99.90;;;;;;5046064;28;20463;-68
2022/10/29 02:10:11;;;;;;;18.83;14.10;;;15.70;99.90;;;;;;5044348;28;20471;-67
2022/10/29 02:12:43;;;;;;;24.00;15.13;;;15.60;99.90;;;;;;5042725;28;20864;-66
2022/10/29 02:15:16;;;;;;;19.23;15.03;;;15.50;99.90;;;;;;5055139;28;20467;-69
2022/10/29 02:17:44;;;;;;;24.43;16.10;;;15.40;99.90;;;;;;5049372;28;20460;-67
2022/10/29 02:20:14;;;;;;;27.10;15.10;;;15.30;99.90;;;;;;5044635;28;20464;-66
2022/10/29 02:22:42;;;;;;;39.40;15.67;;;15.20;99.90;;;;;;5044958;28;20974;-66
2022/10/29 02:25:09;;;;;;;21.77;14.90;;;15.20;99.90;;;;;;5048666;28;20516;-66
2022/10/29 02:27:37;;;;;;;19.00;15.53;;;15.30;99.90;;;;;;5048483;28;20549;-67
2022/10/29 02:30:06;;;;;;;30.63;16.10;;;15.20;99.90;;;;;;5049735;28;20534;-69
2022/10/29 02:32:33;;;;;;;22.23;14.30;;;15.10;99.90;;;;;;5049036;28;20460;-67
2022/10/29 02:35:03;;;;;;;28.73;14.00;;;15.10;99.90;;;;;;5046734;28;20517;-67
2022/10/29 02:37:31;;;;;;;32.97;14.63;;;15.10;99.90;;;;;;5046628;28;20464;-67
2022/10/29 02:39:57;;;;;;;22.63;14.77;;;15.10;99.90;;;;;;5045866;28;21067;-67
2022/10/29 02:42:24;;;;;;;23.80;16.67;;;15.10;99.90;;;;;;5047725;28;20912;-67
2022/10/29 02:44:51;;;;;;;31.80;16.23;;;15.10;99.90;;;;;;5046185;28;20495;-66
2022/10/29 02:47:18;;;;;;;28.87;15.47;;;15.10;99.90;;;;;;5049513;28;20492;-67
2022/10/29 02:49:46;;;;;;;21.70;14.77;;;15.10;99.90;;;;;;5047252;28;21028;-68
2022/10/29 02:52:14;;;;;;;27.37;13.77;;;15.20;99.90;;;;;;5048408;28;20472;-67
2022/10/29 02:54:41;;;;;;;19.50;14.03;;;15.20;99.90;;;;;;5047046;28;21148;-67
2022/10/29 02:57:08;;;;;;;26.33;14.53;;;15.20;99.90;;;;;;5047900;28;20460;-67
2022/10/29 02:59:36;;;;;;;19.63;14.20;;;15.20;99.90;;;;;;5048577;28;20965;-66
2022/10/29 03:02:02;;;;;;;25.47;14.30;;;15.30;99.90;;;;;;5044849;28;20722;-67
2022/10/29 03:04:29;;;;;;;23.10;13.73;;;15.20;99.90;;;;;;5044169;28;20468;-67
2022/10/29 03:06:56;;;;;;;16.37;13.90;;;15.30;99.90;;;;;;5047588;28;20488;-67
2022/10/29 03:09:24;;;;;;;18.80;14.13;;;15.20;99.90;;;;;;5047706;28;20472;-67
2022/10/29 03:11:51;;;;;;;17.73;12.90;;;15.20;99.90;;;;;;5048344;28;20544;-70
2022/10/29 03:14:17;;;;;;;17.83;13.40;;;15.20;99.90;;;;;;5048075;28;20467;-70
2022/10/29 03:16:45;;;;;;;16.30;11.73;;;15.10;99.90;;;;;;5046590;28;20472;-67
2022/10/29 03:19:12;;;;;;;26.70;14.33;;;15.10;99.90;;;;;;5045291;28;20491;-68
2022/10/29 03:21:39;;;;;;;26.87;15.57;;;15.10;99.90;;;;;;5047723;28;20464;-67
2022/10/29 03:24:07;;;;;;;26.93;14.70;;;15.10;99.90;;;;;;5047754;28;20514;-67
2022/10/29 03:26:36;;;;;;;21.57;14.30;;;15.10;99.90;;;;;;5048612;28;20515;-67
2022/10/29 03:29:03;;;;;;;31.83;14.00;;;15.10;99.90;;;;;;5046969;28;20505;-70
2022/10/29 03:31:30;;;;;;;27.00;15.70;;;15.10;99.90;;;;;;5043869;28;20464;-67
2022/10/29 03:33:57;;;;;;;44.17;14.70;;;15.20;99.90;;;;;;5047479;28;20499;-66
2022/10/29 03:36:24;;;;;;;33.77;16.17;;;15.20;99.90;;;;;;5043881;28;20468;-66
2022/10/29 03:38:51;;;;;;;39.50;15.93;;;15.10;99.90;;;;;;5047283;28;20466;-68
2022/10/29 03:41:18;;;;;;;27.80;15.27;;;15.10;99.90;;;;;;5047457;28;20468;-66
2022/10/29 03:43:48;;;;;;;38.17;16.23;;;15.10;99.90;;;;;;5046704;28;20489;-67
2022/10/29 03:46:14;;;;;;;48.27;15.87;;;15.10;99.90;;;;;;5044202;28;20492;-67
2022/10/29 03:48:41;;;;;;;44.97;16.07;;;15.10;99.90;;;;;;5046271;28;20529;-67
2022/10/29 03:51:10;;;;;;;35.87;15.40;;;15.20;99.90;;;;;;5046835;28;20899;-67
2022/10/29 03:53:37;;;;;;;29.67;15.40;;;15.20;99.90;;;;;;5046935;28;20471;-71
2022/10/29 03:56:05;;;;;;;35.47;14.90;;;15.20;99.90;;;;;;5048652;28;20456;-66
2022/10/29 03:58:32;;;;;;;32.77;14.47;;;15.20;99.90;;;;;;5047228;28;20447;-67
2022/10/29 04:01:02;;;;;;;24.70;14.20;;;15.30;99.90;;;;;;5046400;28;21254;-71
2022/10/29 04:03:31;;;;;;;24.30;13.03;;;15.30;99.90;;;;;;5040723;28;20966;-67
2022/10/29 04:05:59;;;;;;;30.67;13.87;;;15.30;99.90;;;;;;5042207;28;20515;-68
2022/10/29 04:08:26;;;;;;;28.43;15.27;;;15.40;99.90;;;;;;5044868;28;20467;-70
2022/10/29 04:10:54;;;;;;;28.00;13.87;;;15.30;99.90;;;;;;5045075;28;20474;-67
2022/10/29 04:13:21;;;;;;;25.03;14.53;;;15.30;99.90;;;;;;5045817;28;20487;-67
2022/10/29 04:15:48;;;;;;;25.20;13.50;;;15.20;99.90;;;;;;5039309;28;20464;-67
2022/10/29 04:18:16;;;;;;;23.27;14.53;;;15.30;99.90;;;;;;5045701;28;20476;-70
2022/10/29 04:20:43;;;;;;;36.27;14.10;;;15.30;99.90;;;;;;5045358;28;20467;-67
2022/10/29 04:23:10;;;;;;;21.00;13.50;;;15.30;99.90;;;;;;5047712;28;20515;-68
2022/10/29 04:25:37;;;;;;;27.53;13.30;;;15.30;99.90;;;;;;5042919;28;20452;-69
2022/10/29 04:28:04;;;;;;;26.43;14.73;;;15.30;99.90;;;;;;5042286;28;20488;-68
2022/10/29 04:30:31;;;;;;;25.60;13.63;;;15.30;99.90;;;;;;5041975;28;20530;-70
2022/10/29 04:32:59;;;;;;;29.40;12.80;;;15.40;99.90;;;;;;5044497;28;20537;-69
2022/10/29 04:35:28;;;;;;;20.10;13.33;;;15.40;99.90;;;;;;5047206;28;20479;-67
2022/10/29 04:37:55;;;;;;;21.93;12.70;;;15.50;99.90;;;;;;5046015;28;20538;-67
2022/10/29 04:40:23;;;;;;;30.67;13.33;;;15.50;99.90;;;;;;5045768;28;20510;-67
2022/10/29 04:42:50;;;;;;;31.10;13.60;;;15.50;99.90;;;;;;5045521;28;20502;-69
2022/10/29 04:45:17;;;;;;;20.13;12.60;;;15.50;99.90;;;;;;5043063;28;20470;-71
2022/10/29 04:47:44;;;;;;;17.07;12.67;;;15.50;99.90;;;;;;5045551;28;20545;-67
2022/10/29 04:50:11;;;;;;;21.33;13.40;;;15.50;99.90;;;;;;5045058;28;20476;-68
2022/10/29 04:52:39;;;;;;;30.07;13.70;;;15.50;99.90;;;;;;5045932;28;20462;-66
2022/10/29 04:55:06;;;;;;;22.40;12.97;;;15.50;99.90;;;;;;5044420;28;20537;-68
2022/10/29 04:57:34;;;;;;;33.03;12.40;;;15.50;99.90;;;;;;5045261;28;20464;-67
2022/10/29 05:00:01;;;;;;;18.30;14.10;;;15.50;99.90;;;;;;5043465;28;20473;-67
2022/10/29 05:02:28;;;;;;;21.10;13.40;;;15.50;99.90;;;;;;5044689;28;20472;-69
2022/10/29 05:04:55;;;;;;;30.70;13.97;;;15.50;99.90;;;;;;5040996;28;20905;-68
2022/10/29 05:07:22;;;;;;;21.13;14.20;;;15.40;99.90;;;;;;5045364;28;20574;-67
2022/10/29 05:09:50;;;;;;;19.73;13.43;;;15.50;99.90;;;;;;5041301;28;20471;-67
2022/10/29 05:12:17;;;;;;;22.90;13.03;;;15.40;99.90;;;;;;5045145;28;20459;-67
2022/10/29 05:14:44;;;;;;;20.70;14.37;;;15.50;99.90;;;;;;5043529;28;20505;-70
2022/10/29 05:17:11;;;;;;;31.30;14.13;;;15.50;99.90;;;;;;5042266;28;20483;-70
2022/10/29 05:19:38;;;;;;;18.20;13.57;;;15.50;99.90;;;;;;5045218;28;20464;-67
2022/10/29 05:22:05;;;;;;;27.63;13.37;;;15.50;99.90;;;;;;5044908;28;20992;-70
2022/10/29 05:24:32;;;;;;;21.83;13.40;;;15.60;99.90;;;;;;5044877;28;20468;-67
2022/10/29 05:27:01;;;;;;;25.33;12.87;;;15.60;99.90;;;;;;5042462;28;20573;-67
2022/10/29 05:29:28;;;;;;;16.17;12.50;;;15.60;99.90;;;;;;5043247;28;20612;-68
2022/10/29 05:31:54;;;;;;;27.73;13.77;;;15.60;99.90;;;;;;5045175;28;20463;-67
2022/10/29 05:34:21;;;;;;;26.63;14.40;;;15.60;99.90;;;;;;5042983;28;20455;-70
2022/10/29 05:36:49;;;;;;;24.53;13.80;;;15.50;99.90;;;;;;5044440;28;20476;-67
2022/10/29 05:39:15;;;;;;;29.07;13.23;;;15.50;99.90;;;;;;5042545;28;20959;-66
2022/10/29 05:41:42;;;;;;;21.20;13.50;;;15.40;99.90;;;;;;5044751;28;20464;-68
2022/10/29 05:44:10;;;;;;;28.07;14.23;;;15.40;99.90;;;;;;5045863;28;20464;-67
2022/10/29 05:46:38;;;;;;;24.97;12.57;;;15.30;99.90;;;;;;5047427;28;20486;-67
2022/10/29 05:49:05;;;;;;;27.53;13.80;;;15.30;99.90;;;;;;5042288;28;20517;-67
2022/10/29 05:51:31;;;;;;;17.30;12.90;;;15.30;99.90;;;;;;5046367;28;20494;-68
2022/10/29 05:53:58;;;;;;;19.23;12.50;;;15.30;99.90;;;;;;5047431;28;20459;-69
2022/10/29 05:56:24;;;;;;;21.67;13.93;;;15.30;99.90;;;;;;5047902;28;20455;-67
2022/10/29 05:58:52;;;;;;;26.87;13.10;;;15.30;99.90;;;;;;5049146;28;20478;-67
2022/10/29 06:01:23;;;;;;;27.67;13.97;;;15.40;99.90;;;;;;5045560;28;20456;-67
2022/10/29 06:03:50;;;;;;;22.83;11.77;;;15.40;99.90;;;;;;5047390;28;21092;-67
2022/10/29 06:06:16;;;;;;;23.40;12.73;;;15.40;99.90;;;;;;5042888;28;20464;-66
2022/10/29 06:08:43;;;;;;;21.70;11.60;;;15.40;99.90;;;;;;5047905;28;20737;-67
2022/10/29 06:11:10;;;;;;;19.17;13.00;;;15.50;99.90;;;;;;5048834;28;20468;-68
2022/10/29 06:13:38;;;;;;;21.00;12.53;;;15.50;99.90;;;;;;5052799;28;20458;-67
2022/10/29 06:16:05;;;;;;;16.40;12.27;;;15.50;99.90;;;;;;5046956;28;20463;-67
2022/10/29 06:18:33;;;;;;;19.43;12.10;;;15.50;99.90;;;;;;5046908;28;20521;-69
2022/10/29 06:21:01;;;;;;;18.63;11.17;;;15.50;99.90;;;;;;5040951;28;20477;-67
2022/10/29 06:23:28;;;;;;;20.73;12.70;;;15.60;99.90;;;;;;5047682;28;21028;-67
2022/10/29 06:25:58;;;;;;;23.90;11.93;;;15.60;99.90;;;;;;5048045;28;20491;-66
2022/10/29 06:28:25;;;;;;;14.17;11.60;;;15.50;99.90;;;;;;5047679;28;20844;-67
2022/10/29 06:30:52;;;;;;;18.13;12.13;;;15.60;99.90;;;;;;5046094;28;20507;-67
2022/10/29 06:33:20;;;;;;;21.83;12.83;;;15.60;99.90;;;;;;5046360;28;20462;-68
2022/10/29 06:35:48;;;;;;;24.20;12.60;;;15.60;99.90;;;;;;5046856;28;20467;-66
2022/10/29 06:38:16;;;;;;;21.03;11.87;;;15.70;99.90;;;;;;5047959;28;20492;-67
2022/10/29 06:40:43;;;;;;;19.77;11.63;;;15.70;99.90;;;;;;5046419;28;21000;-68
2022/10/29 06:43:11;;;;;;;18.23;11.67;;;15.60;99.90;;;;;;5046546;28;20962;-67
2022/10/29 06:45:38;;;;;;;16.20;11.43;;;15.60;99.90;;;;;;5048470;28;20522;-70
2022/10/29 06:48:06;;;;;;;20.27;12.67;;;15.60;99.90;;;;;;5047897;28;20487;-69
2022/10/29 06:50:33;;;;;;;19.00;11.90;;;15.50;99.90;;;;;;5044447;28;20464;-69
2022/10/29 06:53:03;;;;;;;16.97;13.63;;;15.50;99.90;;;;;;5047236;28;20509;-68
2022/10/29 06:55:31;;;;;;;18.00;12.23;;;15.40;99.90;;;;;;5046192;28;20463;-69
2022/10/29 06:57:59;;;;;;;28.20;12.53;;;15.40;99.90;;;;;;5042737;28;20467;-67
2022/10/29 07:00:27;;;;;;;15.90;13.03;;;15.40;99.90;;;;;;5046978;28;20544;-70
2022/10/29 07:02:54;;;;;;;24.47;12.10;;;15.50;99.90;;;;;;5043561;28;20456;-67
2022/10/29 07:05:21;;;;;;;22.80;12.47;;;15.50;99.90;;;;;;5041240;28;20478;-66
2022/10/29 07:07:48;;;;;;;22.20;10.73;;;15.50;99.90;;;;;;5046378;28;20491;-69
2022/10/29 07:10:16;;;;;;;20.63;11.70;;;15.60;99.90;;;;;;5045007;28;20460;-69
2022/10/29 07:12:44;;;;;;;21.20;12.40;;;15.60;99.90;;;;;;5041302;28;20451;-67
2022/10/29 07:15:12;;;;;;;19.17;12.07;;;15.70;99.90;;;;;;5042767;28;20523;-67
2022/10/29 07:17:38;;;;;;;17.00;11.90;;;15.80;99.90;;;;;;5043573;28;20482;-67
2022/10/29 07:20:07;;;;;;;26.63;12.20;;;15.80;99.90;;;;;;5045143;28;20513;-67
2022/10/29 07:22:34;;;;;;;20.13;12.87;;;15.80;99.90;;;;;;5048893;28;20513;-67
2022/10/29 07:25:01;;;;;;;20.73;12.53;;;15.80;99.90;;;;;;5046993;28;20475;-70
2022/10/29 07:27:29;;;;;;;19.77;12.03;;;15.80;99.90;;;;;;5044032;28;20511;-69
2022/10/29 07:29:57;;;;;;;22.93;12.47;;;15.90;99.90;;;;;;5044308;28;20483;-67
2022/10/29 07:32:24;;;;;;;24.60;12.40;;;15.90;99.90;;;;;;5044233;28;20448;-68
2022/10/29 07:34:51;;;;;;;18.30;11.90;;;15.90;99.90;;;;;;5046701;28;20513;-68
2022/10/29 07:37:18;;;;;;;16.17;13.70;;;16.00;99.90;;;;;;5042523;28;20982;-68
2022/10/29 07:39:45;;;;;;;13.17;11.80;;;16.10;99.90;;;;;;5041496;28;20491;-67
2022/10/29 07:42:12;;;;;;;15.23;13.20;;;16.10;99.90;;;;;;5029742;28;20820;-66
2022/10/29 07:44:41;;;;;;;24.60;13.10;;;16.30;99.90;;;;;;5037671;28;20510;-67
2022/10/29 07:47:07;;;;;;;23.87;13.20;;;16.40;99.90;;;;;;5041573;28;20479;-66
2022/10/29 07:49:34;;;;;;;20.40;13.00;;;16.40;99.90;;;;;;5035786;28;20481;-67
2022/10/29 07:52:01;;;;;;;18.50;11.90;;;16.60;99.90;;;;;;5044602;28;20460;-68
2022/10/29 07:54:29;;;;;;;18.10;13.90;;;16.70;99.90;;;;;;5042490;28;20467;-66
2022/10/29 07:56:56;;;;;;;17.73;12.20;;;16.80;99.90;;;;;;5041130;28;20456;-66
2022/10/29 07:59:23;;;;;;;23.07;13.50;;;16.90;99.90;;;;;;5043605;28;20472;-67
2022/10/29 08:01:51;;;;;;;17.53;13.80;;;17.00;99.90;;;;;;5041095;28;20848;-66
2022/10/29 08:04:18;;;;;;;17.10;14.03;;;17.00;99.90;;;;;;5042417;28;20472;-69
2022/10/29 08:06:46;;;;;;;17.00;13.93;;;17.10;99.90;;;;;;5040018;28;20513;-70
2022/10/29 08:09:13;;;;;;;17.40;14.70;;;17.20;99.90;;;;;;5048402;28;21087;-66
2022/10/29 08:11:39;;;;;;;15.50;13.03;;;17.20;99.90;;;;;;5040537;28;20467;-66
2022/10/29 08:14:06;;;;;;;24.87;15.07;;;17.30;99.90;;;;;;5043064;28;20883;-68
2022/10/29 08:16:33;;;;;;;17.37;13.47;;;17.40;99.90;;;;;;5040980;28;21007;-66
2022/10/29 08:19:02;;;;;;;19.63;14.90;;;17.50;99.90;;;;;;5040368;28;20800;-66
2022/10/29 08:21:28;;;;;;;18.03;14.20;;;17.80;99.90;;;;;;5042357;28;20810;-66
2022/10/29 08:23:56;;;;;;;22.53;14.70;;;17.80;99.90;;;;;;5040966;28;20452;-66
2022/10/29 08:26:22;;;;;;;20.10;14.77;;;17.80;99.90;;;;;;5041691;28;20511;-67
2022/10/29 08:28:49;;;;;;;17.30;14.20;;;17.90;99.90;;;;;;5030438;28;20476;-68
2022/10/29 08:31:17;;;;;;;28.00;15.10;;;18.00;99.90;;;;;;5029454;28;20533;-67
2022/10/29 08:33:44;;;;;;;22.17;15.17;;;18.00;99.90;;;;;;5031102;28;20468;-68
2022/10/29 08:36:13;;;;;;;19.10;14.77;;;18.10;99.90;;;;;;5030518;28;20510;-66
2022/10/29 08:38:41;;;;;;;16.13;14.60;;;18.30;99.90;;;;;;5030929;28;21256;-67
2022/10/29 08:41:33;;;;;;;29.80;14.30;;;18.50;99.90;;;;;;5032500;28;20527;-68
2022/10/29 08:44:13;;;;;;;16.10;14.40;;;18.70;99.90;;;;;;5035060;28;20682;-66
2022/10/29 08:46:45;;;;;;;23.20;16.00;;;18.90;99.90;;;;;;5031893;28;20471;-66
2022/10/29 08:49:17;;;;;;;23.47;15.20;;;19.00;99.90;;;;;;5030890;28;20496;-67
2022/10/29 08:51:51;;;;;;;16.43;15.00;;;19.20;99.90;;;;;;5032838;28;20445;-67
2022/10/29 08:54:18;;;;;;;26.57;16.00;;;19.40;99.90;;;;;;5031325;28;20464;-69
2022/10/29 08:56:49;;;;;;;23.07;16.03;;;19.30;99.90;;;;;;5029757;28;20513;-67
2022/10/29 08:59:17;;;;;;;21.40;15.20;;;19.20;99.90;;;;;;5032845;28;20465;-69
2022/10/29 09:01:44;;;;;;;16.40;14.80;;;19.40;99.90;;;;;;5022242;28;20543;-69
2022/10/29 09:04:22;;;;;;;20.37;14.70;;;19.50;99.90;;;;;;5022144;28;20518;-67
2022/10/29 09:07:00;;;;;;;17.90;15.30;;;19.60;99.90;;;;;;5020780;28;20592;-67
2022/10/29 09:09:33;;;;;;;19.97;14.73;;;19.60;99.90;;;;;;5020682;28;20851;-69
2022/10/29 09:12:15;;;;;;;24.20;15.73;;;19.80;99.90;;;;;;5024973;28;20948;-67
2022/10/29 09:15:15;;;;;;;27.97;15.90;;;19.90;99.90;;;;;;5021946;28;20467;-66
2022/10/29 09:17:50;;;;;;;23.07;15.90;;;20.10;99.90;;;;;;5023213;28;20473;-67
2022/10/29 09:20:25;;;;;;;19.70;14.70;;;20.30;99.90;;;;;;5019779;28;20543;-68
2022/10/29 09:23:02;;;;;;;18.40;16.60;;;20.20;99.90;;;;;;5024536;28;20551;-67
2022/10/29 09:25:33;;;;;;;18.83;15.17;;;20.40;99.90;;;;;;5026213;28;20514;-70
2022/10/29 09:28:14;;;;;;;24.03;14.90;;;20.40;99.90;;;;;;5036701;28;20857;-66
2022/10/29 09:30:50;;;;;;;20.10;16.40;;;20.50;99.90;;;;;;5046400;28;20486;-69
2022/10/29 09:33:19;;;;;;;18.33;15.10;;;20.50;99.90;;;;;;5047016;28;20876;-67
2022/10/29 09:35:48;;;;;;;17.70;15.37;;;20.70;99.90;;;;;;5049080;28;20459;-67
2022/10/29 09:38:19;;;;;;;21.43;15.27;;;20.90;99.90;;;;;;5046407;28;20472;-69
2022/10/29 09:40:46;;;;;;;18.70;15.83;;;21.10;99.90;;;;;;5046408;28;20456;-68
2022/10/29 09:43:24;;;;;;;17.80;16.00;;;21.20;99.90;;;;;;5047099;28;20464;-67
2022/10/29 09:45:57;;;;;;;18.03;16.03;;;21.40;99.90;;;;;;5045301;28;20540;-70
2022/10/29 09:48:30;;;;;;;21.03;15.00;;;21.30;99.90;;;;;;5046671;28;20491;-67
2022/10/29 09:51:06;;;;;;;17.77;16.00;;;21.30;99.90;;;;;;5049352;28;20866;-67
2022/10/29 09:53:35;;;;;;;21.90;15.17;;;21.30;99.90;;;;;;5048922;28;20928;-67
2022/10/29 09:56:01;;;;;;;22.53;16.53;;;21.00;99.90;;;;;;5044827;28;20460;-67
2022/10/29 09:58:28;;;;;;;24.67;15.63;;;20.90;99.90;;;;;;5048421;28;20655;-69
2022/10/29 10:00:56;;;;;;;19.30;15.33;;;20.90;99.90;;;;;;5048101;28;20455;-66
2022/10/29 10:03:29;;;;;;;19.83;15.20;;;20.70;99.90;;;;;;5045655;28;20533;-67
2022/10/29 10:06:01;;;;;;;19.23;15.40;;;20.80;99.90;;;;;;5044706;28;20463;-66
2022/10/29 10:08:29;;;;;;;29.93;15.90;;;20.90;99.90;;;;;;5045728;28;20483;-66
2022/10/29 10:11:00;;;;;;;17.80;15.80;;;20.90;99.90;;;;;;5045393;28;20464;-69
2022/10/29 10:13:29;;;;;;;23.50;14.97;;;21.20;99.90;;;;;;5050261;28;20578;-67
2022/10/29 10:15:58;;;;;;;20.30;15.87;;;21.40;99.90;;;;;;5047577;28;20468;-69
2022/10/29 10:18:26;;;;;;;25.73;15.93;;;21.70;99.90;;;;;;5046839;28;20464;-67
2022/10/29 10:21:07;;;;;;;17.80;15.97;;;22.20;99.90;;;;;;5047015;28;20886;-67
2022/10/29 10:23:45;;;;;;;19.27;17.30;;;22.50;99.90;;;;;;5048379;28;20487;-67
2022/10/29 10:26:33;;;;;;;29.03;16.63;;;22.40;99.90;;;;;;5047268;28;20459;-70
2022/10/29 10:29:06;;;;;;;20.63;15.53;;;22.20;99.90;;;;;;5047880;28;20504;-66
2022/10/29 10:31:33;;;;;;;19.47;17.30;;;22.20;99.90;;;;;;5047597;28;20925;-67
2022/10/29 10:34:09;;;;;;;18.27;16.10;;;22.00;99.90;;;;;;5045924;28;20463;-69
2022/10/29 10:36:39;;;;;;;17.37;15.60;;;21.90;99.90;;;;;;5048371;28;20464;-68
2022/10/29 10:39:21;;;;;;;19.63;15.70;;;21.80;99.90;;;;;;5046868;28;20868;-70
2022/10/29 10:41:51;;;;;;;17.10;15.40;;;21.60;99.90;;;;;;5047720;28;20602;-67
2022/10/29 10:44:20;;;;;;;27.47;17.10;;;21.70;99.90;;;;;;5048345;28;20578;-69
2022/10/29 10:46:48;;;;;;;17.57;15.87;;;21.90;99.90;;;;;;5046825;28;20955;-72
2022/10/29 10:49:18;;;;;;;19.17;15.93;;;22.30;99.90;;;;;;5045083;28;20483;-70
2022/10/29 10:51:48;;;;;;;27.37;15.40;;;22.70;99.90;;;;;;5046197;28;20493;-69
2022/10/29 10:54:29;;;;;;;17.00;15.30;;;23.20;99.90;;;;;;5045726;28;20540;-68
2022/10/29 10:57:01;;;;;;;21.40;16.37;;;23.40;99.90;;;;;;5046195;28;20464;-68
2022/10/29 10:59:39;;;;;;;16.67;15.13;;;23.30;99.90;;;;;;5047238;28;20864;-67
2022/10/29 11:02:14;;;;;;;18.90;15.70;;;23.60;99.90;;;;;;5045417;28;20469;-70
2022/10/29 11:04:43;;;;;;;22.40;15.90;;;24.00;99.90;;;;;;5045953;28;20455;-67
2022/10/29 11:07:13;;;;;;;20.43;17.10;;;24.50;99.90;;;;;;5047169;28;20580;-68
2022/10/29 11:09:45;;;;;;;20.40;16.63;;;24.90;99.90;;;;;;5046239;28;20491;-68
2022/10/29 11:12:21;;;;;;;20.03;16.40;;;24.90;99.90;;;;;;5048300;28;20571;-67
2022/10/29 11:14:52;;;;;;;26.30;16.07;;;25.10;99.90;;;;;;5049445;28;20633;-68
2022/10/29 11:17:27;;;;;;;21.33;16.40;;;25.10;99.90;;;;;;5046857;28;20551;-70
2022/10/29 11:19:59;;;;;;;19.93;16.63;;;25.60;99.90;;;;;;5045549;28;20470;-69
2022/10/29 11:22:32;;;;;;;27.43;16.73;;;25.20;99.90;;;;;;5045832;28;20519;-67
2022/10/29 11:25:05;;;;;;;20.30;16.60;;;25.10;99.90;;;;;;5038294;28;20464;-67
2022/10/29 11:27:40;;;;;;;18.67;16.20;;;25.30;99.90;;;;;;5045668;28;20900;-69
2022/10/29 11:30:11;;;;;;;19.13;17.00;;;25.30;99.90;;;;;;5045571;28;20490;-67
2022/10/29 11:32:51;;;;;;;24.80;17.50;;;25.80;99.90;;;;;;5045336;28;20533;-68
2022/10/29 11:35:28;;;;;;;23.07;16.70;;;26.10;99.90;;;;;;5042948;28;21005;-70
2022/10/29 11:38:01;;;;;;;17.60;15.90;;;26.10;99.90;;;;;;5047357;28;20548;-68
2022/10/29 11:40:36;;;;;;;18.60;16.80;;;26.30;99.90;;;;;;5043897;28;20830;-67
2022/10/29 11:43:11;;;;;;;30.77;17.73;;;26.40;99.90;;;;;;5045615;28;20470;-68
2022/10/29 11:45:47;;;;;;;22.27;16.40;;;25.90;99.90;;;;;;5045949;28;20462;-68
2022/10/29 11:48:22;;;;;;;22.30;17.03;;;26.20;99.90;;;;;;5042326;28;20463;-68
2022/10/29 11:50:55;;;;;;;21.00;16.47;;;26.30;99.90;;;;;;5040464;28;20847;-68
2022/10/29 11:53:39;;;;;;;20.13;16.70;;;26.70;99.90;;;;;;5045876;28;20991;-67
2022/10/29 11:56:14;;;;;;;22.80;17.03;;;27.10;99.90;;;;;;5045343;28;20643;-68
2022/10/29 11:58:48;;;;;;;17.90;16.10;;;27.30;99.90;;;;;;5041724;28;20810;-70
2022/10/29 12:01:20;;;;;;;20.73;15.80;;;27.40;99.90;;;;;;5043506;28;20468;-68
2022/10/29 12:04:08;;;;;;;19.53;17.20;;;27.80;99.90;;;;;;5043067;28;20506;-68
2022/10/29 12:06:41;;;;;;;17.40;16.00;;;27.90;99.90;;;;;;5041236;28;20468;-68
2022/10/29 12:09:31;;;;;;;25.40;17.57;;;28.10;99.90;;;;;;5045123;28;20486;-68
2022/10/29 12:12:03;;;;;;;29.20;16.70;;;28.30;99.90;;;;;;5044352;28;20645;-68
2022/10/29 12:14:40;;;;;;;28.97;17.47;;;28.20;99.90;;;;;;5046687;28;20464;-68
2022/10/29 12:17:12;;;;;;;25.63;17.90;;;28.00;99.90;;;;;;5048045;28;20567;-67
2022/10/29 12:19:46;;;;;;;25.47;18.30;;;27.40;99.90;;;;;;5046927;28;20464;-68
2022/10/29 12:22:23;;;;;;;20.63;17.43;;;27.10;99.90;;;;;;5043568;28;20460;-70
2022/10/29 12:25:04;;;;;;;19.13;16.03;;;27.00;99.90;;;;;;5040340;28;20456;-70
2022/10/29 12:27:40;;;;;;;32.10;17.20;;;27.30;99.90;;;;;;5042962;28;20476;-68
2022/10/29 12:30:11;;;;;;;23.23;17.73;;;28.20;99.90;;;;;;5045180;28;20495;-68
2022/10/29 12:32:49;;;;;;;20.07;17.87;;;28.80;99.90;;;;;;5046618;28;20467;-70
2022/10/29 12:35:20;;;;;;;18.80;17.00;;;29.30;99.90;;;;;;5047034;28;20514;-68
2022/10/29 12:38:05;;;;;;;19.97;17.80;;;29.10;99.90;;;;;;5044263;28;20533;-69
2022/10/29 12:40:36;;;;;;;27.20;17.50;;;29.00;99.90;;;;;;5044854;28;20998;-70
2022/10/29 12:43:05;;;;;;;23.03;18.60;;;28.40;99.90;;;;;;5046041;28;20591;-68